sensor_id;sensor_type;location;lat;lon;timestamp;temperature;humidity
74968;SHT30;63523;51.880;12.630;2023-05-16T00:02:01;13.94;68.61
74968;SHT30;63523;51.880;12.630;2023-05-16T00:04:27;13.93;68.57
74968;SHT30;63523;51.880;12.630;2023-05-16T00:06:52;13.81;68.71
74968;SHT30;63523;51.880;12.630;2023-05-16T00:09:18;13.76;68.64
74968;SHT30;63523;51.880;12.630;2023-05-16T00:11:44;13.76;68.82
74968;SHT30;63523;51.880;12.630;2023-05-16T00:14:09;13.74;69.39
74968;SHT30;63523;51.880;12.630;2023-05-16T00:16:35;13.71;68.99
74968;SHT30;63523;51.880;12.630;2023-05-16T00:19:01;13.69;69.25
74968;SHT30;63523;51.880;12.630;2023-05-16T00:21:26;13.65;69.45
74968;SHT30;63523;51.880;12.630;2023-05-16T00:23:52;13.53;69.92
74968;SHT30;63523;51.880;12.630;2023-05-16T00:26:18;13.50;69.83
74968;SHT30;63523;51.880;12.630;2023-05-16T00:28:43;13.42;69.97
74968;SHT30;63523;51.880;12.630;2023-05-16T00:31:08;13.38;70.08
74968;SHT30;63523;51.880;12.630;2023-05-16T00:33:34;13.38;70.52
74968;SHT30;63523;51.880;12.630;2023-05-16T00:35:59;13.35;70.57
74968;SHT30;63523;51.880;12.630;2023-05-16T00:38:25;13.32;70.73
74968;SHT30;63523;51.880;12.630;2023-05-16T00:40:50;13.28;70.90
74968;SHT30;63523;51.880;12.630;2023-05-16T00:43:16;13.29;71.04
74968;SHT30;63523;51.880;12.630;2023-05-16T00:45:41;13.29;71.05
74968;SHT30;63523;51.880;12.630;2023-05-16T00:48:07;13.29;71.52
74968;SHT30;63523;51.880;12.630;2023-05-16T00:50:33;13.26;71.51
74968;SHT30;63523;51.880;12.630;2023-05-16T00:52:59;13.22;71.66
74968;SHT30;63523;51.880;12.630;2023-05-16T00:55:24;13.22;71.70
74968;SHT30;63523;51.880;12.630;2023-05-16T00:57:51;13.22;71.91
74968;SHT30;63523;51.880;12.630;2023-05-16T01:00:16;13.16;71.78
74968;SHT30;63523;51.880;12.630;2023-05-16T01:02:44;13.12;71.76
74968;SHT30;63523;51.880;12.630;2023-05-16T01:05:10;13.05;71.73
74968;SHT30;63523;51.880;12.630;2023-05-16T01:07:36;13.00;72.17
74968;SHT30;63523;51.880;12.630;2023-05-16T01:10:02;12.94;72.05
74968;SHT30;63523;51.880;12.630;2023-05-16T01:15:12;12.79;71.96
74968;SHT30;63523;51.880;12.630;2023-05-16T01:17:49;12.76;72.35
74968;SHT30;63523;51.880;12.630;2023-05-16T01:25:56;12.61;71.96
74968;SHT30;63523;51.880;12.630;2023-05-16T01:28:23;12.56;72.21
74968;SHT30;63523;51.880;12.630;2023-05-16T01:30:49;12.56;72.29
74968;SHT30;63523;51.880;12.630;2023-05-16T01:33:15;12.46;71.59
74968;SHT30;63523;51.880;12.630;2023-05-16T01:38:58;12.31;71.97
74968;SHT30;63523;51.880;12.630;2023-05-16T01:44:45;12.21;71.97
74968;SHT30;63523;51.880;12.630;2023-05-16T01:47:13;12.12;71.88
74968;SHT30;63523;51.880;12.630;2023-05-16T01:50:07;12.08;71.86
74968;SHT30;63523;51.880;12.630;2023-05-16T01:52:41;11.97;72.03
74968;SHT30;63523;51.880;12.630;2023-05-16T01:55:10;11.94;72.37
74968;SHT30;63523;51.880;12.630;2023-05-16T01:57:39;11.86;72.59
74968;SHT30;63523;51.880;12.630;2023-05-16T02:00:05;11.86;72.92
74968;SHT30;63523;51.880;12.630;2023-05-16T02:02:31;11.74;73.16
74968;SHT30;63523;51.880;12.630;2023-05-16T02:04:56;11.74;73.65
74968;SHT30;63523;51.880;12.630;2023-05-16T02:07:22;11.73;73.96
74968;SHT30;63523;51.880;12.630;2023-05-16T02:09:47;11.66;74.46
74968;SHT30;63523;51.880;12.630;2023-05-16T02:12:12;11.63;74.60
74968;SHT30;63523;51.880;12.630;2023-05-16T02:14:38;11.63;74.85
74968;SHT30;63523;51.880;12.630;2023-05-16T02:17:03;11.62;74.92
74968;SHT30;63523;51.880;12.630;2023-05-16T02:19:29;11.50;75.36
74968;SHT30;63523;51.880;12.630;2023-05-16T02:21:55;11.46;75.67
74968;SHT30;63523;51.880;12.630;2023-05-16T02:24:20;11.42;75.71
74968;SHT30;63523;51.880;12.630;2023-05-16T02:26:46;11.35;76.02
74968;SHT30;63523;51.880;12.630;2023-05-16T02:29:11;11.26;76.32
74968;SHT30;63523;51.880;12.630;2023-05-16T02:31:36;11.14;76.64
74968;SHT30;63523;51.880;12.630;2023-05-16T02:34:02;11.11;77.05
74968;SHT30;63523;51.880;12.630;2023-05-16T02:36:28;11.05;76.75
74968;SHT30;63523;51.880;12.630;2023-05-16T02:38:53;10.98;77.11
74968;SHT30;63523;51.880;12.630;2023-05-16T02:41:19;11.00;77.25
74968;SHT30;63523;51.880;12.630;2023-05-16T02:43:46;10.95;77.17
74968;SHT30;63523;51.880;12.630;2023-05-16T02:46:33;10.88;77.49
74968;SHT30;63523;51.880;12.630;2023-05-16T02:48:58;10.85;77.76
74968;SHT30;63523;51.880;12.630;2023-05-16T02:51:25;10.83;77.59
74968;SHT30;63523;51.880;12.630;2023-05-16T02:53:51;10.80;77.80
74968;SHT30;63523;51.880;12.630;2023-05-16T02:56:17;10.80;77.93
74968;SHT30;63523;51.880;12.630;2023-05-16T02:58:46;10.74;78.21
74968;SHT30;63523;51.880;12.630;2023-05-16T03:01:12;10.77;77.85
74968;SHT30;63523;51.880;12.630;2023-05-16T03:03:37;10.70;77.95
74968;SHT30;63523;51.880;12.630;2023-05-16T03:06:03;10.67;78.14
74968;SHT30;63523;51.880;12.630;2023-05-16T03:08:28;10.70;78.12
74968;SHT30;63523;51.880;12.630;2023-05-16T03:10:53;10.70;77.85
74968;SHT30;63523;51.880;12.630;2023-05-16T03:13:18;10.69;78.00
74968;SHT30;63523;51.880;12.630;2023-05-16T03:15:44;10.73;77.87
74968;SHT30;63523;51.880;12.630;2023-05-16T03:18:09;10.67;77.68
74968;SHT30;63523;51.880;12.630;2023-05-16T03:20:36;10.69;77.79
74968;SHT30;63523;51.880;12.630;2023-05-16T03:23:01;10.67;77.72
74968;SHT30;63523;51.880;12.630;2023-05-16T03:25:27;10.64;77.45
74968;SHT30;63523;51.880;12.630;2023-05-16T03:27:52;10.59;77.74
74968;SHT30;63523;51.880;12.630;2023-05-16T03:30:18;10.59;77.82
74968;SHT30;63523;51.880;12.630;2023-05-16T03:32:44;10.56;77.74
74968;SHT30;63523;51.880;12.630;2023-05-16T03:35:10;10.59;77.68
74968;SHT30;63523;51.880;12.630;2023-05-16T03:37:36;10.56;77.50
74968;SHT30;63523;51.880;12.630;2023-05-16T03:40:02;10.59;77.60
74968;SHT30;63523;51.880;12.630;2023-05-16T03:42:30;10.64;77.32
74968;SHT30;63523;51.880;12.630;2023-05-16T03:44:56;10.61;77.43
74968;SHT30;63523;51.880;12.630;2023-05-16T03:47:21;10.57;77.36
74968;SHT30;63523;51.880;12.630;2023-05-16T03:49:47;10.56;77.34
74968;SHT30;63523;51.880;12.630;2023-05-16T03:52:12;10.59;77.29
74968;SHT30;63523;51.880;12.630;2023-05-16T03:54:38;10.56;77.66
74968;SHT30;63523;51.880;12.630;2023-05-16T03:57:04;10.56;77.36
74968;SHT30;63523;51.880;12.630;2023-05-16T03:59:29;10.59;77.18
74968;SHT30;63523;51.880;12.630;2023-05-16T04:01:55;10.59;77.04
74968;SHT30;63523;51.880;12.630;2023-05-16T04:04:20;10.56;77.36
74968;SHT30;63523;51.880;12.630;2023-05-16T04:06:45;10.59;77.56
74968;SHT30;63523;51.880;12.630;2023-05-16T04:09:11;10.60;77.20
74968;SHT30;63523;51.880;12.630;2023-05-16T04:11:36;10.64;77.20
74968;SHT30;63523;51.880;12.630;2023-05-16T04:14:02;10.64;76.98
74968;SHT30;63523;51.880;12.630;2023-05-16T04:16:28;10.70;76.88
74968;SHT30;63523;51.880;12.630;2023-05-16T04:18:54;10.71;77.05
74968;SHT30;63523;51.880;12.630;2023-05-16T04:21:20;10.74;76.77
74968;SHT30;63523;51.880;12.630;2023-05-16T04:23:46;10.71;76.67
74968;SHT30;63523;51.880;12.630;2023-05-16T04:26:11;10.60;76.80
74968;SHT30;63523;51.880;12.630;2023-05-16T04:28:37;10.50;77.18
74968;SHT30;63523;51.880;12.630;2023-05-16T04:31:02;10.55;76.87
74968;SHT30;63523;51.880;12.630;2023-05-16T04:33:27;10.42;77.10
74968;SHT30;63523;51.880;12.630;2023-05-16T04:35:53;10.39;77.12
74968;SHT30;63523;51.880;12.630;2023-05-16T04:38:19;10.36;77.09
74968;SHT30;63523;51.880;12.630;2023-05-16T04:40:44;10.38;77.15
74968;SHT30;63523;51.880;12.630;2023-05-16T04:43:10;10.36;77.23
74968;SHT30;63523;51.880;12.630;2023-05-16T04:45:35;10.45;77.54
74968;SHT30;63523;51.880;12.630;2023-05-16T04:48:00;10.55;76.98
74968;SHT30;63523;51.880;12.630;2023-05-16T04:50:26;10.60;76.50
74968;SHT30;63523;51.880;12.630;2023-05-16T04:52:51;10.59;76.75
74968;SHT30;63523;51.880;12.630;2023-05-16T04:55:17;10.64;76.76
74968;SHT30;63523;51.880;12.630;2023-05-16T04:57:42;10.67;76.49
74968;SHT30;63523;51.880;12.630;2023-05-16T05:00:08;10.70;76.95
74968;SHT30;63523;51.880;12.630;2023-05-16T05:02:36;10.81;75.90
74968;SHT30;63523;51.880;12.630;2023-05-16T05:05:02;10.87;74.76
74968;SHT30;63523;51.880;12.630;2023-05-16T05:07:27;10.77;75.10
74968;SHT30;63523;51.880;12.630;2023-05-16T05:09:53;10.69;74.51
74968;SHT30;63523;51.880;12.630;2023-05-16T05:12:20;10.63;74.54
74968;SHT30;63523;51.880;12.630;2023-05-16T05:14:46;10.45;75.21
74968;SHT30;63523;51.880;12.630;2023-05-16T05:17:11;10.42;75.48
74968;SHT30;63523;51.880;12.630;2023-05-16T05:19:36;10.50;75.95
74968;SHT30;63523;51.880;12.630;2023-05-16T05:22:02;10.55;74.95
74968;SHT30;63523;51.880;12.630;2023-05-16T05:24:27;10.56;75.46
74968;SHT30;63523;51.880;12.630;2023-05-16T05:26:52;10.57;75.36
74968;SHT30;63523;51.880;12.630;2023-05-16T05:29:18;10.66;75.21
74968;SHT30;63523;51.880;12.630;2023-05-16T05:31:43;10.63;74.60
74968;SHT30;63523;51.880;12.630;2023-05-16T05:34:08;10.60;74.96
74968;SHT30;63523;51.880;12.630;2023-05-16T05:36:34;10.61;74.99
74968;SHT30;63523;51.880;12.630;2023-05-16T05:38:59;10.63;74.99
74968;SHT30;63523;51.880;12.630;2023-05-16T05:41:24;10.70;74.85
74968;SHT30;63523;51.880;12.630;2023-05-16T05:43:51;10.74;74.89
74968;SHT30;63523;51.880;12.630;2023-05-16T05:46:16;10.77;74.77
74968;SHT30;63523;51.880;12.630;2023-05-16T05:48:42;10.80;74.44
74968;SHT30;63523;51.880;12.630;2023-05-16T05:51:07;10.80;74.09
74968;SHT30;63523;51.880;12.630;2023-05-16T05:53:33;10.81;74.08
74968;SHT30;63523;51.880;12.630;2023-05-16T05:55:58;10.87;73.73
74968;SHT30;63523;51.880;12.630;2023-05-16T05:58:24;10.85;73.69
74968;SHT30;63523;51.880;12.630;2023-05-16T06:00:49;10.87;73.98
74968;SHT30;63523;51.880;12.630;2023-05-16T06:03:15;10.90;73.83
74968;SHT30;63523;51.880;12.630;2023-05-16T06:05:40;10.94;74.22
74968;SHT30;63523;51.880;12.630;2023-05-16T06:08:05;10.95;73.28
74968;SHT30;63523;51.880;12.630;2023-05-16T06:10:31;10.95;73.72
74968;SHT30;63523;51.880;12.630;2023-05-16T06:12:56;11.01;73.20
74968;SHT30;63523;51.880;12.630;2023-05-16T06:15:21;11.05;72.85
74968;SHT30;63523;51.880;12.630;2023-05-16T06:17:46;11.05;72.64
74968;SHT30;63523;51.880;12.630;2023-05-16T06:20:12;11.07;73.50
74968;SHT30;63523;51.880;12.630;2023-05-16T06:22:37;11.11;73.08
74968;SHT30;63523;51.880;12.630;2023-05-16T06:25:03;11.11;72.30
74968;SHT30;63523;51.880;12.630;2023-05-16T06:27:28;11.15;72.55
74968;SHT30;63523;51.880;12.630;2023-05-16T06:29:54;11.12;72.44
74968;SHT30;63523;51.880;12.630;2023-05-16T06:32:19;11.12;72.52
74968;SHT30;63523;51.880;12.630;2023-05-16T06:34:44;11.15;72.37
74968;SHT30;63523;51.880;12.630;2023-05-16T06:37:10;11.16;72.37
74968;SHT30;63523;51.880;12.630;2023-05-16T06:39:35;11.24;72.68
74968;SHT30;63523;51.880;12.630;2023-05-16T06:42:00;11.31;72.16
74968;SHT30;63523;51.880;12.630;2023-05-16T06:44:26;11.42;72.30
74968;SHT30;63523;51.880;12.630;2023-05-16T06:46:51;11.47;71.64
74968;SHT30;63523;51.880;12.630;2023-05-16T06:49:17;11.60;72.05
74968;SHT30;63523;51.880;12.630;2023-05-16T06:51:42;11.60;70.82
74968;SHT30;63523;51.880;12.630;2023-05-16T06:54:07;11.60;70.51
74968;SHT30;63523;51.880;12.630;2023-05-16T06:56:33;11.59;70.97
74968;SHT30;63523;51.880;12.630;2023-05-16T06:58:58;11.65;71.61
74968;SHT30;63523;51.880;12.630;2023-05-16T07:01:25;11.69;70.86
74968;SHT30;63523;51.880;12.630;2023-05-16T07:03:51;11.69;71.07
74968;SHT30;63523;51.880;12.630;2023-05-16T07:06:16;11.70;71.32
74968;SHT30;63523;51.880;12.630;2023-05-16T07:08:41;11.86;71.20
74968;SHT30;63523;51.880;12.630;2023-05-16T07:11:07;11.94;70.74
74968;SHT30;63523;51.880;12.630;2023-05-16T07:13:32;11.99;70.61
74968;SHT30;63523;51.880;12.630;2023-05-16T07:15:57;12.05;71.14
74968;SHT30;63523;51.880;12.630;2023-05-16T07:18:22;12.01;70.01
74968;SHT30;63523;51.880;12.630;2023-05-16T07:20:48;12.04;70.55
74968;SHT30;63523;51.880;12.630;2023-05-16T07:23:13;12.05;70.62
74968;SHT30;63523;51.880;12.630;2023-05-16T07:25:38;12.06;70.52
74968;SHT30;63523;51.880;12.630;2023-05-16T07:28:04;12.10;70.97
74968;SHT30;63523;51.880;12.630;2023-05-16T07:30:29;12.11;70.05
74968;SHT30;63523;51.880;12.630;2023-05-16T07:32:55;12.04;70.38
74968;SHT30;63523;51.880;12.630;2023-05-16T07:35:20;12.05;70.59
74968;SHT30;63523;51.880;12.630;2023-05-16T07:37:46;12.12;70.56
74968;SHT30;63523;51.880;12.630;2023-05-16T07:40:12;12.12;70.33
74968;SHT30;63523;51.880;12.630;2023-05-16T07:42:37;12.21;70.52
74968;SHT30;63523;51.880;12.630;2023-05-16T07:45:04;12.28;70.53
74968;SHT30;63523;51.880;12.630;2023-05-16T07:47:29;12.31;70.13
74968;SHT30;63523;51.880;12.630;2023-05-16T07:49:55;12.26;70.37
74968;SHT30;63523;51.880;12.630;2023-05-16T07:52:20;12.25;70.33
74968;SHT30;63523;51.880;12.630;2023-05-16T07:54:46;12.31;70.45
74968;SHT30;63523;51.880;12.630;2023-05-16T07:57:13;12.31;70.27
74968;SHT30;63523;51.880;12.630;2023-05-16T07:59:39;12.26;70.79
74968;SHT30;63523;51.880;12.630;2023-05-16T08:02:04;12.29;70.91
74968;SHT30;63523;51.880;12.630;2023-05-16T08:04:31;12.33;71.46
74968;SHT30;63523;51.880;12.630;2023-05-16T08:06:56;12.43;70.87
74968;SHT30;63523;51.880;12.630;2023-05-16T08:09:22;12.46;70.34
74968;SHT30;63523;51.880;12.630;2023-05-16T08:11:47;12.48;70.27
74968;SHT30;63523;51.880;12.630;2023-05-16T08:14:12;12.59;70.65
74968;SHT30;63523;51.880;12.630;2023-05-16T08:16:38;12.57;70.40
74968;SHT30;63523;51.880;12.630;2023-05-16T08:19:03;12.56;70.15
74968;SHT30;63523;51.880;12.630;2023-05-16T08:21:28;12.64;70.27
74968;SHT30;63523;51.880;12.630;2023-05-16T08:23:55;12.63;70.25
74968;SHT30;63523;51.880;12.630;2023-05-16T08:26:21;12.63;70.20
74968;SHT30;63523;51.880;12.630;2023-05-16T08:28:46;12.63;70.61
74968;SHT30;63523;51.880;12.630;2023-05-16T08:31:12;12.70;71.01
74968;SHT30;63523;51.880;12.630;2023-05-16T08:33:37;12.64;70.67
74968;SHT30;63523;51.880;12.630;2023-05-16T08:36:02;12.53;71.09
74968;SHT30;63523;51.880;12.630;2023-05-16T08:38:28;12.46;71.76
74968;SHT30;63523;51.880;12.630;2023-05-16T08:40:53;12.29;72.16
74968;SHT30;63523;51.880;12.630;2023-05-16T08:43:19;12.22;72.71
74968;SHT30;63523;51.880;12.630;2023-05-16T08:45:44;12.24;72.22
74968;SHT30;63523;51.880;12.630;2023-05-16T08:48:10;12.29;72.22
74968;SHT30;63523;51.880;12.630;2023-05-16T08:50:36;12.28;72.38
74968;SHT30;63523;51.880;12.630;2023-05-16T08:53:05;12.31;71.71
74968;SHT30;63523;51.880;12.630;2023-05-16T08:55:31;12.29;71.67
74968;SHT30;63523;51.880;12.630;2023-05-16T08:57:57;12.38;71.96
74968;SHT30;63523;51.880;12.630;2023-05-16T09:00:24;12.39;71.04
74968;SHT30;63523;51.880;12.630;2023-05-16T09:02:51;12.43;70.89
74968;SHT30;63523;51.880;12.630;2023-05-16T09:05:17;12.49;71.14
74968;SHT30;63523;51.880;12.630;2023-05-16T09:07:43;12.57;71.73
74968;SHT30;63523;51.880;12.630;2023-05-16T09:10:10;12.72;71.82
74968;SHT30;63523;51.880;12.630;2023-05-16T09:12:36;12.79;70.67
74968;SHT30;63523;51.880;12.630;2023-05-16T09:15:05;12.60;69.40
74968;SHT30;63523;51.880;12.630;2023-05-16T09:17:44;12.49;69.24
74968;SHT30;63523;51.880;12.630;2023-05-16T09:22:37;12.36;70.29
74968;SHT30;63523;51.880;12.630;2023-05-16T09:25:02;12.42;70.09
74968;SHT30;63523;51.880;12.630;2023-05-16T09:27:30;12.45;70.12
74968;SHT30;63523;51.880;12.630;2023-05-16T09:29:57;12.49;69.87
74968;SHT30;63523;51.880;12.630;2023-05-16T09:32:23;12.50;69.48
74968;SHT30;63523;51.880;12.630;2023-05-16T09:34:49;12.45;69.41
74968;SHT30;63523;51.880;12.630;2023-05-16T09:37:18;12.48;69.55
74968;SHT30;63523;51.880;12.630;2023-05-16T09:39:49;12.57;69.88
74968;SHT30;63523;51.880;12.630;2023-05-16T09:42:16;12.67;69.75
74968;SHT30;63523;51.880;12.630;2023-05-16T09:44:49;12.67;68.94
74968;SHT30;63523;51.880;12.630;2023-05-16T09:47:19;12.72;68.94
74968;SHT30;63523;51.880;12.630;2023-05-16T09:49:45;12.64;68.20
74968;SHT30;63523;51.880;12.630;2023-05-16T09:52:12;12.66;68.57
74968;SHT30;63523;51.880;12.630;2023-05-16T09:54:37;12.76;68.49
74968;SHT30;63523;51.880;12.630;2023-05-16T09:57:03;13.01;68.16
74968;SHT30;63523;51.880;12.630;2023-05-16T09:59:29;13.12;67.36
74968;SHT30;63523;51.880;12.630;2023-05-16T10:01:57;13.07;66.52
74968;SHT30;63523;51.880;12.630;2023-05-16T10:04:25;12.90;67.36
74968;SHT30;63523;51.880;12.630;2023-05-16T10:06:54;12.84;67.91
74968;SHT30;63523;51.880;12.630;2023-05-16T10:09:21;12.72;67.44
74968;SHT30;63523;51.880;12.630;2023-05-16T10:11:48;12.75;67.87
74968;SHT30;63523;51.880;12.630;2023-05-16T10:14:19;12.70;67.95
74968;SHT30;63523;51.880;12.630;2023-05-16T10:16:46;12.84;67.47
74968;SHT30;63523;51.880;12.630;2023-05-16T10:19:12;12.95;66.15
74968;SHT30;63523;51.880;12.630;2023-05-16T10:21:39;13.22;66.18
74968;SHT30;63523;51.880;12.630;2023-05-16T10:24:06;13.52;64.09
74968;SHT30;63523;51.880;12.630;2023-05-16T10:26:35;13.77;61.70
74968;SHT30;63523;51.880;12.630;2023-05-16T10:29:01;13.93;62.09
74968;SHT30;63523;51.880;12.630;2023-05-16T10:31:27;14.10;61.08
74968;SHT30;63523;51.880;12.630;2023-05-16T10:33:54;14.18;60.63
74968;SHT30;63523;51.880;12.630;2023-05-16T10:36:21;14.12;59.80
74968;SHT30;63523;51.880;12.630;2023-05-16T10:38:46;13.86;59.43
74968;SHT30;63523;51.880;12.630;2023-05-16T10:41:13;13.70;60.84
74968;SHT30;63523;51.880;12.630;2023-05-16T10:43:38;13.80;60.70
74968;SHT30;63523;51.880;12.630;2023-05-16T10:46:09;13.88;60.54
74968;SHT30;63523;51.880;12.630;2023-05-16T10:48:39;13.98;60.28
74968;SHT30;63523;51.880;12.630;2023-05-16T10:51:36;14.21;59.81
74968;SHT30;63523;51.880;12.630;2023-05-16T10:54:10;14.17;57.30
74968;SHT30;63523;51.880;12.630;2023-05-16T10:56:38;14.17;58.53
74968;SHT30;63523;51.880;12.630;2023-05-16T10:59:21;14.38;59.25
74968;SHT30;63523;51.880;12.630;2023-05-16T11:01:51;14.22;57.16
74968;SHT30;63523;51.880;12.630;2023-05-16T11:04:16;14.05;58.67
74968;SHT30;63523;51.880;12.630;2023-05-16T11:09:18;13.97;58.47
74968;SHT30;63523;51.880;12.630;2023-05-16T11:19:48;13.93;58.21
74968;SHT30;63523;51.880;12.630;2023-05-16T11:22:31;14.03;58.21
74968;SHT30;63523;51.880;12.630;2023-05-16T11:25:07;14.01;58.52
74968;SHT30;63523;51.880;12.630;2023-05-16T11:27:44;14.04;57.48
74968;SHT30;63523;51.880;12.630;2023-05-16T11:30:12;14.15;58.07
74968;SHT30;63523;51.880;12.630;2023-05-16T11:32:39;14.05;57.57
74968;SHT30;63523;51.880;12.630;2023-05-16T11:35:07;14.04;58.89
74968;SHT30;63523;51.880;12.630;2023-05-16T11:37:33;14.05;59.06
74968;SHT30;63523;51.880;12.630;2023-05-16T11:40:01;14.05;58.24
74968;SHT30;63523;51.880;12.630;2023-05-16T11:42:34;14.36;58.78
74968;SHT30;63523;51.880;12.630;2023-05-16T11:45:29;14.48;57.04
74968;SHT30;63523;51.880;12.630;2023-05-16T11:48:00;14.69;57.03
74968;SHT30;63523;51.880;12.630;2023-05-16T11:50:26;15.00;56.95
74968;SHT30;63523;51.880;12.630;2023-05-16T11:52:52;15.25;53.92
74968;SHT30;63523;51.880;12.630;2023-05-16T11:55:23;15.42;54.33
74968;SHT30;63523;51.880;12.630;2023-05-16T11:57:50;15.35;52.24
74968;SHT30;63523;51.880;12.630;2023-05-16T12:00:17;15.35;53.68
74968;SHT30;63523;51.880;12.630;2023-05-16T12:02:47;15.53;54.26
74968;SHT30;63523;51.880;12.630;2023-05-16T12:05:14;15.46;51.55
74968;SHT30;63523;51.880;12.630;2023-05-16T12:07:42;15.62;51.90
74968;SHT30;63523;51.880;12.630;2023-05-16T12:10:09;15.73;51.00
74968;SHT30;63523;51.880;12.630;2023-05-16T12:12:37;16.07;50.00
74968;SHT30;63523;51.880;12.630;2023-05-16T12:15:04;16.08;49.00
74968;SHT30;63523;51.880;12.630;2023-05-16T12:17:31;16.21;49.29
74968;SHT30;63523;51.880;12.630;2023-05-16T12:19:57;16.17;48.39
74968;SHT30;63523;51.880;12.630;2023-05-16T12:22:24;16.21;50.12
74968;SHT30;63523;51.880;12.630;2023-05-16T12:24:49;16.30;49.29
74968;SHT30;63523;51.880;12.630;2023-05-16T12:27:25;16.30;50.20
74968;SHT30;63523;51.880;12.630;2023-05-16T12:29:51;16.22;50.17
74968;SHT30;63523;51.880;12.630;2023-05-16T12:32:20;16.21;49.79
74968;SHT30;63523;51.880;12.630;2023-05-16T12:34:52;16.26;50.12
74968;SHT30;63523;51.880;12.630;2023-05-16T12:37:18;16.22;50.90
74968;SHT30;63523;51.880;12.630;2023-05-16T12:39:45;16.30;48.64
74968;SHT30;63523;51.880;12.630;2023-05-16T12:42:12;16.10;49.64
74968;SHT30;63523;51.880;12.630;2023-05-16T12:44:38;16.01;49.97
74968;SHT30;63523;51.880;12.630;2023-05-16T12:47:03;16.07;47.82
74968;SHT30;63523;51.880;12.630;2023-05-16T12:49:35;15.94;48.80
74968;SHT30;63523;51.880;12.630;2023-05-16T12:52:00;15.94;49.70
74968;SHT30;63523;51.880;12.630;2023-05-16T12:54:29;16.00;47.87
74968;SHT30;63523;51.880;12.630;2023-05-16T12:56:55;16.10;45.65
74968;SHT30;63523;51.880;12.630;2023-05-16T12:59:20;16.04;47.12
74968;SHT30;63523;51.880;12.630;2023-05-16T13:01:45;15.98;45.34
74968;SHT30;63523;51.880;12.630;2023-05-16T13:04:11;16.00;46.50
74968;SHT30;63523;51.880;12.630;2023-05-16T13:06:40;16.14;47.84
74968;SHT30;63523;51.880;12.630;2023-05-16T13:09:06;16.29;45.82
74968;SHT30;63523;51.880;12.630;2023-05-16T13:11:32;16.45;46.88
74968;SHT30;63523;51.880;12.630;2023-05-16T13:13:57;16.74;45.33
74968;SHT30;63523;51.880;12.630;2023-05-16T13:16:22;16.74;43.58
74968;SHT30;63523;51.880;12.630;2023-05-16T13:18:48;16.69;41.20
74968;SHT30;63523;51.880;12.630;2023-05-16T13:21:13;16.70;43.02
74968;SHT30;63523;51.880;12.630;2023-05-16T13:23:39;16.95;43.10
74968;SHT30;63523;51.880;12.630;2023-05-16T13:26:04;17.31;41.96
74968;SHT30;63523;51.880;12.630;2023-05-16T13:28:29;17.52;41.73
74968;SHT30;63523;51.880;12.630;2023-05-16T13:30:56;17.62;41.55
74968;SHT30;63523;51.880;12.630;2023-05-16T13:33:21;17.52;39.96
74968;SHT30;63523;51.880;12.630;2023-05-16T13:35:48;17.35;41.11
74968;SHT30;63523;51.880;12.630;2023-05-16T13:38:14;17.24;40.18
74968;SHT30;63523;51.880;12.630;2023-05-16T13:40:39;17.32;41.38
74968;SHT30;63523;51.880;12.630;2023-05-16T13:43:04;17.39;40.95
74968;SHT30;63523;51.880;12.630;2023-05-16T13:45:30;17.53;40.79
74968;SHT30;63523;51.880;12.630;2023-05-16T13:47:56;17.63;41.15
74968;SHT30;63523;51.880;12.630;2023-05-16T13:50:21;17.73;41.17
74968;SHT30;63523;51.880;12.630;2023-05-16T13:52:46;17.73;39.31
74968;SHT30;63523;51.880;12.630;2023-05-16T13:55:12;17.67;40.67
74968;SHT30;63523;51.880;12.630;2023-05-16T13:57:38;17.70;39.99
74968;SHT30;63523;51.880;12.630;2023-05-16T14:00:04;17.72;40.49
74968;SHT30;63523;51.880;12.630;2023-05-16T14:02:40;18.00;40.30
74968;SHT30;63523;51.880;12.630;2023-05-16T14:05:06;17.91;39.17
74968;SHT30;63523;51.880;12.630;2023-05-16T14:07:32;17.80;39.36
74968;SHT30;63523;51.880;12.630;2023-05-16T14:09:58;17.90;40.15
74968;SHT30;63523;51.880;12.630;2023-05-16T14:12:23;18.07;40.26
74968;SHT30;63523;51.880;12.630;2023-05-16T14:14:48;18.12;39.83
74968;SHT30;63523;51.880;12.630;2023-05-16T14:17:14;18.36;37.86
74968;SHT30;63523;51.880;12.630;2023-05-16T14:19:39;18.41;37.81
74968;SHT30;63523;51.880;12.630;2023-05-16T14:22:05;18.08;36.67
74968;SHT30;63523;51.880;12.630;2023-05-16T14:24:30;17.87;35.60
74968;SHT30;63523;51.880;12.630;2023-05-16T14:26:55;17.47;37.91
74968;SHT30;63523;51.880;12.630;2023-05-16T14:29:20;17.35;38.25
74968;SHT30;63523;51.880;12.630;2023-05-16T14:31:46;17.27;38.12
74968;SHT30;63523;51.880;12.630;2023-05-16T14:34:11;16.99;37.50
74968;SHT30;63523;51.880;12.630;2023-05-16T14:36:37;16.91;39.32
74968;SHT30;63523;51.880;12.630;2023-05-16T14:39:02;16.91;38.68
74968;SHT30;63523;51.880;12.630;2023-05-16T14:41:28;16.90;37.78
74968;SHT30;63523;51.880;12.630;2023-05-16T14:43:54;17.03;38.43
74968;SHT30;63523;51.880;12.630;2023-05-16T14:46:19;17.14;39.27
74968;SHT30;63523;51.880;12.630;2023-05-16T14:48:44;17.14;38.51
74968;SHT30;63523;51.880;12.630;2023-05-16T14:51:09;17.17;39.39
74968;SHT30;63523;51.880;12.630;2023-05-16T14:53:36;17.27;37.32
74968;SHT30;63523;51.880;12.630;2023-05-16T14:56:01;17.38;36.71
74968;SHT30;63523;51.880;12.630;2023-05-16T14:58:27;17.42;36.86
74968;SHT30;63523;51.880;12.630;2023-05-16T15:00:53;17.47;36.22
74968;SHT30;63523;51.880;12.630;2023-05-16T15:03:18;17.40;35.78
74968;SHT30;63523;51.880;12.630;2023-05-16T15:05:43;17.52;36.99
74968;SHT30;63523;51.880;12.630;2023-05-16T15:08:09;17.45;35.00
74968;SHT30;63523;51.880;12.630;2023-05-16T15:10:34;17.32;34.77
74968;SHT30;63523;51.880;12.630;2023-05-16T15:13:00;17.36;35.57
74968;SHT30;63523;51.880;12.630;2023-05-16T15:15:25;17.29;35.66
74968;SHT30;63523;51.880;12.630;2023-05-16T15:17:50;17.47;36.81
74968;SHT30;63523;51.880;12.630;2023-05-16T15:20:16;17.53;34.97
74968;SHT30;63523;51.880;12.630;2023-05-16T15:22:41;17.45;35.62
74968;SHT30;63523;51.880;12.630;2023-05-16T15:25:07;17.50;33.71
74968;SHT30;63523;51.880;12.630;2023-05-16T15:27:33;17.49;32.47
74968;SHT30;63523;51.880;12.630;2023-05-16T15:29:59;17.38;32.82
74968;SHT30;63523;51.880;12.630;2023-05-16T15:32:25;17.45;33.89
74968;SHT30;63523;51.880;12.630;2023-05-16T15:34:51;17.49;31.97
74968;SHT30;63523;51.880;12.630;2023-05-16T15:37:16;17.53;31.97
74968;SHT30;63523;51.880;12.630;2023-05-16T15:39:41;17.63;35.12